Terminal Aerodrome Forecast
Issued by NWS

Current Version | Previous Version | Text Only | Print | Product List | Glossary On
Versions: 1 2 3 4 5 6 7 8 9 10 11 12 13 14 15
000
FTUS46 KSTO 241738
TAFSAC
TAF
KSAC 241738Z 2418/2518 36007KT P6SM SKC
     FM242100 34009G14KT P6SM SKC
     FM250200 30004KT P6SM SKC=

USA.gov is the U.S. government's official web portal to all federal, state and local government web resources and services.